createdAt,value
2017-09-30T00:01:40.600Z,12.39
2017-09-30T00:04:09.657Z,12.39
2017-09-30T00:06:38.720Z,12.39
2017-09-30T00:09:07.923Z,12.38
2017-09-30T00:11:36.979Z,12.37
2017-09-30T00:14:06.023Z,12.35
2017-09-30T00:16:35.078Z,12.34
2017-09-30T00:19:04.138Z,12.31
2017-09-30T00:21:34.192Z,12.31
2017-09-30T00:24:03.226Z,12.31
2017-09-30T00:26:32.295Z,12.32
2017-09-30T00:29:01.354Z,12.34
2017-09-30T00:31:31.393Z,12.33
2017-09-30T00:34:01.413Z,12.34
2017-09-30T00:36:30.454Z,12.35
2017-09-30T00:38:59.573Z,12.36
2017-09-30T00:41:28.629Z,12.36
2017-09-30T00:43:57.662Z,12.37
2017-09-30T00:46:26.721Z,12.36
2017-09-30T00:48:55.770Z,12.40
2017-09-30T00:51:24.863Z,12.42
2017-09-30T00:53:53.902Z,12.43
2017-09-30T00:56:23.003Z,12.43
2017-09-30T00:58:52.070Z,12.44
2017-09-30T01:01:21.122Z,12.46
2017-09-30T01:03:50.275Z,12.51
2017-09-30T01:06:19.407Z,12.54
2017-09-30T01:08:48.565Z,12.56
2017-09-30T01:11:19.868Z,12.55
2017-09-30T01:13:49.007Z,12.45
2017-09-30T01:16:18.103Z,12.31
2017-09-30T01:18:48.239Z,12.22
2017-09-30T01:21:17.710Z,12.20
2017-09-30T01:23:47.158Z,12.22
2017-09-30T01:26:16.610Z,12.22
2017-09-30T01:28:45.837Z,12.26
2017-09-30T01:31:15.322Z,12.25
2017-09-30T01:33:44.408Z,12.26
2017-09-30T01:36:15.514Z,12.26
2017-09-30T01:38:44.613Z,12.26
2017-09-30T01:41:13.774Z,12.26
2017-09-30T01:43:42.805Z,12.26
2017-09-30T01:46:12.003Z,12.27
2017-09-30T01:48:41.068Z,12.29
2017-09-30T01:51:10.098Z,12.32
2017-09-30T01:53:39.149Z,12.37
2017-09-30T01:56:08.202Z,12.42
2017-09-30T01:58:37.401Z,12.46
2017-09-30T02:01:06.452Z,12.47
2017-09-30T02:03:35.499Z,12.49
2017-09-30T02:06:04.558Z,12.51
2017-09-30T02:08:33.616Z,12.53
2017-09-30T02:11:02.646Z,12.55
2017-09-30T02:13:31.699Z,12.59
2017-09-30T02:16:00.767Z,12.62
2017-09-30T02:18:30.037Z,12.63
2017-09-30T02:20:59.074Z,12.64
2017-09-30T02:23:28.123Z,12.64
2017-09-30T02:25:57.207Z,12.63
2017-09-30T02:28:26.266Z,12.59
2017-09-30T02:30:56.262Z,12.52
2017-09-30T02:33:25.306Z,12.43
2017-09-30T02:35:54.359Z,12.38
2017-09-30T02:38:23.446Z,12.35
2017-09-30T02:40:52.547Z,12.31
2017-09-30T02:43:21.561Z,12.27
2017-09-30T02:45:50.628Z,12.25
2017-09-30T02:48:19.678Z,12.22
2017-09-30T02:50:48.731Z,12.18
2017-09-30T02:53:17.792Z,12.15
2017-09-30T02:55:50.170Z,12.08
2017-09-30T02:58:19.518Z,12.02
2017-09-30T03:00:48.565Z,11.93
2017-09-30T03:03:17.615Z,11.88
2017-09-30T03:05:46.682Z,11.86
2017-09-30T03:08:17.674Z,11.83
2017-09-30T03:10:46.714Z,11.82
2017-09-30T03:13:15.754Z,11.81
2017-09-30T03:15:44.812Z,11.83
2017-09-30T03:18:13.871Z,11.82
2017-09-30T03:20:43.887Z,11.79
2017-09-30T03:23:12.937Z,11.76
2017-09-30T03:25:41.995Z,11.74
2017-09-30T03:28:11.071Z,11.70
2017-09-30T03:30:40.134Z,11.70
2017-09-30T03:33:09.233Z,11.68
2017-09-30T03:35:38.286Z,11.69
2017-09-30T03:38:07.331Z,11.66
2017-09-30T03:40:36.409Z,11.68
2017-09-30T03:43:05.446Z,11.69
2017-09-30T03:45:34.489Z,11.69
2017-09-30T03:48:03.532Z,11.71
2017-09-30T03:50:32.604Z,11.69
2017-09-30T03:53:01.663Z,11.73
2017-09-30T03:55:30.744Z,11.71
2017-09-30T03:57:59.793Z,11.64
2017-09-30T04:00:28.883Z,11.57
2017-09-30T04:02:57.923Z,11.51
2017-09-30T04:05:26.977Z,11.46
2017-09-30T04:07:56.045Z,11.45
2017-09-30T04:10:25.084Z,11.45
2017-09-30T04:12:54.167Z,11.45
2017-09-30T04:15:23.211Z,11.46
2017-09-30T04:17:52.263Z,11.46
2017-09-30T04:20:21.358Z,11.46
2017-09-30T04:22:50.405Z,11.46
2017-09-30T04:25:19.458Z,11.43
2017-09-30T04:27:48.518Z,11.41
2017-09-30T04:30:17.588Z,11.44
2017-09-30T04:32:46.637Z,11.44
2017-09-30T04:35:15.690Z,11.45
2017-09-30T04:37:44.745Z,11.43
2017-09-30T04:40:13.805Z,11.44
2017-09-30T04:42:42.875Z,11.48
2017-09-30T04:45:11.947Z,11.48
2017-09-30T04:47:41.003Z,11.52
2017-09-30T04:50:10.070Z,11.56
2017-09-30T04:52:39.119Z,11.59
2017-09-30T04:55:08.282Z,11.64
2017-09-30T04:57:37.330Z,11.66
2017-09-30T05:00:06.401Z,11.65
2017-09-30T05:02:36.472Z,11.63
2017-09-30T05:05:06.491Z,11.62
2017-09-30T05:07:35.687Z,11.65
2017-09-30T05:10:04.751Z,11.66
2017-09-30T05:12:33.803Z,11.67
2017-09-30T05:15:02.895Z,11.70
2017-09-30T05:17:32.003Z,11.72
2017-09-30T05:20:03.029Z,11.76
2017-09-30T05:22:33.242Z,11.78
2017-09-30T05:25:02.287Z,11.79
2017-09-30T05:27:32.042Z,11.80
2017-09-30T05:30:01.083Z,11.80
2017-09-30T05:32:30.138Z,11.82
2017-09-30T05:35:00.230Z,11.85
2017-09-30T05:37:29.330Z,11.85
2017-09-30T05:39:58.394Z,11.85
2017-09-30T05:42:27.439Z,11.87
2017-09-30T05:44:56.487Z,11.88
2017-09-30T05:47:25.539Z,11.92
2017-09-30T05:49:54.587Z,11.98
2017-09-30T05:52:23.679Z,12.04
2017-09-30T05:54:52.727Z,12.11
2017-09-30T05:57:21.802Z,12.16
2017-09-30T05:59:50.850Z,12.09
2017-09-30T06:02:19.901Z,12.00
2017-09-30T06:04:49.029Z,12.00
2017-09-30T06:07:18.087Z,12.03
2017-09-30T06:09:47.180Z,12.11
2017-09-30T06:12:16.242Z,12.18
2017-09-30T06:14:45.324Z,12.22
2017-09-30T06:17:14.470Z,12.32
2017-09-30T06:19:43.526Z,12.50
2017-09-30T06:22:12.608Z,12.60
2017-09-30T06:24:41.681Z,12.68
2017-09-30T06:27:10.730Z,12.78
2017-09-30T06:29:39.779Z,12.89
2017-09-30T06:32:08.862Z,13.04
2017-09-30T06:34:38.020Z,13.18
2017-09-30T06:37:07.172Z,13.27
2017-09-30T06:39:36.434Z,13.32
2017-09-30T06:42:05.475Z,13.43
2017-09-30T06:44:34.655Z,13.50
2017-09-30T06:47:03.715Z,13.58
2017-09-30T06:49:32.943Z,13.69
2017-09-30T06:52:01.979Z,13.79
2017-09-30T06:54:31.027Z,13.90
2017-09-30T06:57:00.070Z,14.01
2017-09-30T06:59:29.470Z,14.13
2017-09-30T07:01:58.538Z,14.19
2017-09-30T07:04:27.602Z,14.27
2017-09-30T07:06:56.672Z,14.34
2017-09-30T07:09:25.723Z,14.33
2017-09-30T07:11:54.784Z,14.44
2017-09-30T07:14:23.895Z,14.50
2017-09-30T07:16:52.946Z,14.60
2017-09-30T07:19:22.041Z,14.79
2017-09-30T07:21:51.100Z,15.01
2017-09-30T07:24:20.151Z,15.22
2017-09-30T07:26:49.206Z,15.32
2017-09-30T07:29:18.263Z,15.46
2017-09-30T07:31:47.320Z,15.63
2017-09-30T07:34:16.380Z,15.86
2017-09-30T07:36:45.426Z,16.01
2017-09-30T07:39:14.493Z,16.22
2017-09-30T07:41:43.542Z,16.40
2017-09-30T07:44:12.588Z,16.61
2017-09-30T07:46:41.650Z,16.81
2017-09-30T07:49:10.806Z,17.21
2017-09-30T07:51:39.893Z,17.59
2017-09-30T07:54:09.108Z,17.84
2017-09-30T07:56:38.297Z,18.11
2017-09-30T07:59:07.324Z,18.38
2017-09-30T08:01:36.455Z,18.65
2017-09-30T08:04:05.499Z,18.53
2017-09-30T08:06:34.553Z,18.66
2017-09-30T08:09:03.606Z,18.98
2017-09-30T08:11:32.644Z,18.99
2017-09-30T08:14:01.847Z,18.98
2017-09-30T08:16:30.886Z,19.17
2017-09-30T08:18:59.934Z,19.40
2017-09-30T08:21:28.987Z,19.25
2017-09-30T08:23:58.043Z,19.16
2017-09-30T08:26:29.100Z,19.37
2017-09-30T08:28:59.411Z,19.89
2017-09-30T08:31:28.493Z,20.47
2017-09-30T08:33:57.528Z,20.94
2017-09-30T08:36:26.566Z,21.17
2017-09-30T08:38:55.661Z,21.42
2017-09-30T08:41:24.699Z,21.28
2017-09-30T08:43:53.784Z,21.05
2017-09-30T08:46:22.839Z,21.16
2017-09-30T08:48:51.907Z,21.31
2017-09-30T08:51:20.980Z,21.81
2017-09-30T08:53:50.031Z,22.30
2017-09-30T08:56:19.070Z,22.70
2017-09-30T08:58:48.132Z,23.16
2017-09-30T09:01:17.225Z,23.53
2017-09-30T09:03:46.253Z,23.96
2017-09-30T09:06:15.321Z,24.58
2017-09-30T09:08:44.374Z,25.40
2017-09-30T09:11:13.428Z,25.93
2017-09-30T09:13:42.526Z,26.35
2017-09-30T09:16:11.570Z,26.53
2017-09-30T09:18:40.624Z,27.17
2017-09-30T09:21:09.701Z,27.18
2017-09-30T09:23:43.975Z,27.71
2017-09-30T09:26:18.238Z,27.91
2017-09-30T09:28:53.576Z,28.14
2017-09-30T09:31:28.313Z,28.59
2017-09-30T09:34:03.758Z,29.52
2017-09-30T09:36:39.424Z,29.76
2017-09-30T09:39:14.974Z,29.46
2017-09-30T09:41:49.967Z,28.15
2017-09-30T09:44:24.194Z,27.84
2017-09-30T09:46:59.733Z,27.93
2017-09-30T09:49:35.999Z,28.02
2017-09-30T09:52:10.796Z,27.90
2017-09-30T09:54:45.661Z,27.22
2017-09-30T09:57:21.300Z,27.24
2017-09-30T09:59:57.963Z,27.36
2017-09-30T10:02:32.288Z,27.37
2017-09-30T10:05:09.938Z,26.92
2017-09-30T10:07:45.122Z,26.93
2017-09-30T10:10:21.618Z,26.16
2017-09-30T10:12:55.096Z,26.07
2017-09-30T10:15:31.151Z,25.87
2017-09-30T10:18:05.978Z,25.78
2017-09-30T10:20:41.810Z,26.04
2017-09-30T10:23:15.259Z,26.41
2017-09-30T10:25:52.350Z,26.10
2017-09-30T10:28:27.140Z,26.32
2017-09-30T10:31:02.356Z,26.21
2017-09-30T10:33:37.252Z,26.00
2017-09-30T10:36:12.532Z,25.62
2017-09-30T10:38:46.728Z,25.54
2017-09-30T10:41:21.660Z,25.21
2017-09-30T10:43:56.697Z,25.11
2017-09-30T10:46:31.709Z,25.47
2017-09-30T10:49:06.534Z,26.00
2017-09-30T10:51:42.203Z,26.72
2017-09-30T10:54:15.878Z,27.12
2017-09-30T10:56:49.967Z,27.14
2017-09-30T10:59:25.460Z,27.10
2017-09-30T11:01:55.089Z,27.33
2017-09-30T11:04:24.429Z,27.38
2017-09-30T11:06:53.487Z,27.38
2017-09-30T11:09:22.629Z,27.63
2017-09-30T11:11:52.411Z,26.71
2017-09-30T11:14:21.645Z,26.87
2017-09-30T11:16:50.712Z,26.59
2017-09-30T11:19:19.746Z,26.64
2017-09-30T11:21:49.112Z,26.75
2017-09-30T11:24:18.210Z,26.68
2017-09-30T11:26:47.231Z,26.70
2017-09-30T11:29:16.288Z,27.56
2017-09-30T11:31:45.346Z,28.37
2017-09-30T11:34:14.382Z,28.86
2017-09-30T11:36:43.430Z,29.12
2017-09-30T11:39:12.468Z,28.74
2017-09-30T11:41:41.538Z,28.52
2017-09-30T11:44:10.588Z,28.27
2017-09-30T11:46:39.667Z,28.51
2017-09-30T11:49:08.769Z,28.54
2017-09-30T11:51:40.407Z,28.13
2017-09-30T11:54:09.455Z,27.53
2017-09-30T11:56:38.505Z,27.67
2017-09-30T11:59:07.567Z,27.69
2017-09-30T12:01:36.622Z,27.68
2017-09-30T12:04:05.707Z,27.57
2017-09-30T12:06:34.876Z,27.52
2017-09-30T12:09:03.915Z,26.75
2017-09-30T12:11:40.997Z,26.14
2017-09-30T12:14:12.181Z,25.89
2017-09-30T12:16:41.275Z,26.25
2017-09-30T12:19:10.342Z,26.62
2017-09-30T12:21:39.390Z,26.46
2017-09-30T12:24:08.496Z,26.19
2017-09-30T12:26:37.522Z,26.01
2017-09-30T12:29:06.723Z,26.05
2017-09-30T12:31:35.799Z,25.92
2017-09-30T12:34:04.856Z,25.95
2017-09-30T12:36:34.122Z,26.01
2017-09-30T12:39:03.151Z,26.15
2017-09-30T12:41:32.224Z,26.86
2017-09-30T12:44:01.274Z,27.07
2017-09-30T12:46:30.781Z,27.42
2017-09-30T12:48:59.846Z,29.52
2017-09-30T12:51:28.970Z,30.40
2017-09-30T12:53:58.034Z,30.75
2017-09-30T12:56:27.082Z,31.68
2017-09-30T12:58:56.226Z,33.17
2017-09-30T13:01:25.586Z,33.69
2017-09-30T13:03:54.682Z,34.37
2017-09-30T13:06:23.769Z,33.08
2017-09-30T13:08:52.804Z,34.43
2017-09-30T13:11:21.984Z,35.96
2017-09-30T13:13:51.024Z,36.08
2017-09-30T13:16:20.102Z,36.52
2017-09-30T13:18:49.152Z,36.08
2017-09-30T13:21:18.245Z,35.03
2017-09-30T13:23:47.398Z,33.73
2017-09-30T13:26:16.439Z,31.93
2017-09-30T13:28:45.603Z,31.62
2017-09-30T13:31:14.639Z,31.68
2017-09-30T13:33:43.793Z,31.26
2017-09-30T13:36:12.871Z,31.11
2017-09-30T13:38:41.950Z,31.47
2017-09-30T13:41:11.109Z,32.03
2017-09-30T13:43:40.634Z,32.00
2017-09-30T13:46:09.687Z,31.70
2017-09-30T13:48:38.996Z,30.81
2017-09-30T13:51:08.063Z,30.48
2017-09-30T13:53:38.335Z,30.33
2017-09-30T13:56:08.154Z,29.81
2017-09-30T13:58:43.681Z,29.63
2017-09-30T14:01:17.591Z,28.94
2017-09-30T14:03:46.723Z,27.66
2017-09-30T14:06:15.764Z,27.00
2017-09-30T14:08:44.906Z,27.08
2017-09-30T14:11:13.951Z,26.79
2017-09-30T14:13:42.975Z,26.79
2017-09-30T14:16:12.038Z,26.79
2017-09-30T14:18:41.179Z,26.79
2017-09-30T14:21:10.222Z,26.46
2017-09-30T14:23:41.220Z,26.31
2017-09-30T14:26:12.822Z,26.41
2017-09-30T14:28:41.946Z,26.55
2017-09-30T14:31:11.007Z,26.49
2017-09-30T14:33:40.081Z,26.53
2017-09-30T14:36:09.324Z,26.33
2017-09-30T14:38:38.365Z,26.24
2017-09-30T14:41:07.422Z,26.17
2017-09-30T14:43:36.501Z,25.98
2017-09-30T14:46:05.593Z,25.65
2017-09-30T14:48:34.671Z,25.58
2017-09-30T14:51:03.750Z,25.53
2017-09-30T14:53:32.803Z,25.38
2017-09-30T14:56:02.139Z,25.17
2017-09-30T14:58:31.343Z,24.85
2017-09-30T15:01:00.411Z,24.81
2017-09-30T15:03:29.480Z,24.76
2017-09-30T15:05:58.554Z,24.85
2017-09-30T15:08:28.918Z,24.86
2017-09-30T15:10:58.067Z,24.95
2017-09-30T15:13:27.133Z,24.86
2017-09-30T15:15:56.172Z,24.76
2017-09-30T15:18:25.263Z,24.64
2017-09-30T15:20:54.998Z,24.61
2017-09-30T15:23:24.138Z,24.49
2017-09-30T15:25:53.270Z,24.28
2017-09-30T15:28:22.370Z,23.91
2017-09-30T15:30:51.551Z,23.43
2017-09-30T15:33:20.657Z,23.26
2017-09-30T15:35:49.758Z,23.10
2017-09-30T15:38:18.799Z,22.86
2017-09-30T15:40:47.843Z,22.62
2017-09-30T15:43:17.808Z,22.53
2017-09-30T15:45:46.854Z,22.43
2017-09-30T15:48:16.691Z,22.31
2017-09-30T15:50:45.754Z,22.15
2017-09-30T15:53:14.898Z,22.05
2017-09-30T15:55:43.995Z,21.81
2017-09-30T15:58:13.046Z,21.75
2017-09-30T16:00:42.099Z,21.62
2017-09-30T16:03:11.180Z,21.51
2017-09-30T16:05:40.294Z,21.39
2017-09-30T16:08:09.396Z,21.26
2017-09-30T16:10:38.501Z,21.16
2017-09-30T16:13:07.600Z,21.02
2017-09-30T16:15:36.688Z,20.95
2017-09-30T16:18:05.738Z,20.80
2017-09-30T16:20:34.799Z,20.68
2017-09-30T16:23:05.932Z,20.52
2017-09-30T16:25:34.971Z,20.44
2017-09-30T16:28:04.068Z,20.32
2017-09-30T16:30:33.118Z,20.21
2017-09-30T16:33:02.173Z,20.13
2017-09-30T16:35:31.279Z,19.96
2017-09-30T16:38:01.225Z,19.90
2017-09-30T16:40:30.282Z,19.84
2017-09-30T16:42:59.331Z,19.73
2017-09-30T16:45:28.405Z,19.59
2017-09-30T16:47:57.494Z,19.48
2017-09-30T16:50:26.549Z,19.36
2017-09-30T16:52:55.612Z,19.29
2017-09-30T16:55:24.654Z,19.18
2017-09-30T16:57:54.666Z,19.08
2017-09-30T17:00:23.755Z,19.00
2017-09-30T17:02:52.799Z,18.93
2017-09-30T17:05:21.890Z,18.86
2017-09-30T17:07:50.948Z,18.78
2017-09-30T17:10:20.001Z,18.72
2017-09-30T17:12:49.992Z,18.62
2017-09-30T17:15:19.046Z,18.52
2017-09-30T17:17:48.471Z,18.40
2017-09-30T17:20:17.487Z,18.33
2017-09-30T17:22:46.529Z,18.16
2017-09-30T17:25:15.616Z,18.09
2017-09-30T17:27:44.711Z,18.01
2017-09-30T17:30:13.763Z,17.94
2017-09-30T17:32:42.827Z,17.84
2017-09-30T17:35:11.890Z,17.73
2017-09-30T17:37:40.964Z,17.65
2017-09-30T17:40:10.009Z,17.58
2017-09-30T17:42:39.075Z,17.55
2017-09-30T17:45:08.126Z,17.52
2017-09-30T17:47:37.225Z,17.51
2017-09-30T17:50:06.276Z,17.47
2017-09-30T17:52:35.318Z,17.43
2017-09-30T17:55:04.425Z,17.41
2017-09-30T17:57:33.470Z,17.39
2017-09-30T18:00:02.684Z,17.36
2017-09-30T18:02:31.730Z,17.33
2017-09-30T18:05:00.775Z,17.20
2017-09-30T18:07:29.871Z,17.13
2017-09-30T18:09:59.892Z,17.08
2017-09-30T18:12:28.933Z,17.11
2017-09-30T18:14:57.990Z,17.08
2017-09-30T18:17:27.093Z,17.04
2017-09-30T18:19:56.150Z,17.02
2017-09-30T18:22:26.215Z,16.97
2017-09-30T18:24:55.274Z,16.99
2017-09-30T18:27:24.318Z,16.99
2017-09-30T18:29:53.374Z,16.98
2017-09-30T18:32:22.414Z,16.94
2017-09-30T18:34:53.578Z,16.91
2017-09-30T18:37:22.654Z,16.87
2017-09-30T18:39:52.671Z,16.84
2017-09-30T18:42:21.725Z,16.83
2017-09-30T18:44:50.774Z,16.80
2017-09-30T18:47:19.828Z,16.77
2017-09-30T18:49:48.875Z,16.74
2017-09-30T18:52:17.958Z,16.73
2017-09-30T18:54:47.020Z,16.71
2017-09-30T18:57:16.086Z,16.66
2017-09-30T18:59:45.147Z,16.67
2017-09-30T19:02:14.230Z,16.66
2017-09-30T19:04:43.282Z,16.66
2017-09-30T19:07:12.351Z,16.66
2017-09-30T19:09:41.402Z,16.67
2017-09-30T19:12:10.557Z,16.64
2017-09-30T19:14:39.614Z,16.60
2017-09-30T19:17:08.669Z,16.59
2017-09-30T19:19:37.733Z,16.59
2017-09-30T19:22:06.776Z,16.60
2017-09-30T19:24:35.846Z,16.64
2017-09-30T19:27:04.903Z,16.59
2017-09-30T19:29:33.962Z,16.58
2017-09-30T19:32:03.033Z,16.69
2017-09-30T19:34:32.102Z,16.82
2017-09-30T19:37:01.175Z,16.91
2017-09-30T19:39:30.222Z,16.91
2017-09-30T19:42:00.272Z,16.98
2017-09-30T19:44:29.327Z,16.96
2017-09-30T19:46:58.510Z,16.92
2017-09-30T19:49:27.584Z,16.94
2017-09-30T19:51:57.690Z,17.02
2017-09-30T19:54:26.756Z,17.04
2017-09-30T19:56:55.829Z,17.05
2017-09-30T19:59:24.878Z,17.04
2017-09-30T20:01:53.966Z,16.92
2017-09-30T20:04:23.006Z,16.80
2017-09-30T20:06:52.110Z,16.69
2017-09-30T20:09:21.158Z,16.61
2017-09-30T20:11:50.207Z,16.54
2017-09-30T20:14:19.274Z,16.52
2017-09-30T20:16:48.379Z,16.53
2017-09-30T20:19:17.435Z,16.51
2017-09-30T20:21:46.475Z,16.62
2017-09-30T20:24:15.549Z,16.72
2017-09-30T20:26:44.643Z,16.94
2017-09-30T20:29:13.721Z,16.94
2017-09-30T20:31:42.829Z,17.04
2017-09-30T20:34:11.901Z,17.05
2017-09-30T20:36:40.950Z,16.94
2017-09-30T20:39:09.994Z,16.84
2017-09-30T20:41:39.057Z,16.67
2017-09-30T20:44:08.112Z,16.65
2017-09-30T20:46:37.153Z,16.50
2017-09-30T20:49:06.250Z,16.43
2017-09-30T20:51:35.299Z,16.30
2017-09-30T20:54:04.354Z,16.25
2017-09-30T20:56:33.409Z,16.18
2017-09-30T20:59:02.501Z,16.10
2017-09-30T21:01:31.544Z,16.11
2017-09-30T21:04:02.595Z,16.14
2017-09-30T21:06:31.624Z,16.14
2017-09-30T21:09:00.716Z,16.10
2017-09-30T21:11:29.755Z,16.07
2017-09-30T21:13:58.803Z,16.04
2017-09-30T21:16:27.966Z,15.99
2017-09-30T21:18:59.131Z,15.98
2017-09-30T21:21:28.151Z,15.95
2017-09-30T21:23:57.191Z,15.93
2017-09-30T21:26:26.239Z,15.94
2017-09-30T21:28:55.289Z,16.01
2017-09-30T21:31:24.393Z,15.98
2017-09-30T21:33:54.024Z,15.96
2017-09-30T21:36:23.067Z,15.98
2017-09-30T21:38:52.128Z,15.93
2017-09-30T21:41:21.170Z,15.94
2017-09-30T21:43:50.408Z,15.92
2017-09-30T21:46:19.463Z,15.91
2017-09-30T21:48:48.497Z,15.89
2017-09-30T21:51:17.547Z,15.89
2017-09-30T21:53:46.606Z,15.84
2017-09-30T21:56:15.645Z,15.82
2017-09-30T21:58:44.743Z,15.83
2017-09-30T22:01:13.790Z,15.84
2017-09-30T22:03:42.854Z,15.74
2017-09-30T22:06:11.982Z,15.80
2017-09-30T22:08:41.033Z,15.69
2017-09-30T22:11:10.067Z,15.68
2017-09-30T22:13:39.123Z,15.73
2017-09-30T22:16:08.165Z,15.79
2017-09-30T22:18:37.238Z,15.78
2017-09-30T22:21:06.306Z,15.86
2017-09-30T22:23:35.325Z,15.84
2017-09-30T22:26:04.364Z,15.83
2017-09-30T22:28:33.431Z,15.83
2017-09-30T22:31:02.504Z,15.80
2017-09-30T22:33:31.580Z,15.64
2017-09-30T22:36:00.618Z,15.62
2017-09-30T22:38:29.662Z,15.47
2017-09-30T22:40:58.740Z,15.24
2017-09-30T22:43:27.775Z,15.11
2017-09-30T22:45:56.827Z,15.08
2017-09-30T22:48:25.918Z,15.05
2017-09-30T22:50:55.010Z,14.83
2017-09-30T22:53:24.075Z,14.73
2017-09-30T22:55:53.115Z,14.63
2017-09-30T22:58:22.418Z,14.51
2017-09-30T23:00:51.452Z,14.52
2017-09-30T23:03:20.492Z,14.43
2017-09-30T23:05:49.529Z,14.34
2017-09-30T23:08:18.582Z,14.17
2017-09-30T23:10:47.642Z,14.12
2017-09-30T23:13:16.683Z,14.08
2017-09-30T23:15:45.722Z,13.95
2017-09-30T23:18:14.866Z,13.90
2017-09-30T23:20:43.911Z,13.88
2017-09-30T23:23:15.377Z,13.83
2017-09-30T23:25:44.406Z,13.82
2017-09-30T23:28:13.459Z,13.73
2017-09-30T23:30:42.507Z,13.67
2017-09-30T23:33:11.551Z,13.55
2017-09-30T23:35:40.594Z,13.51
2017-09-30T23:38:09.659Z,13.36
2017-09-30T23:40:38.708Z,13.27
2017-09-30T23:43:07.883Z,13.27
2017-09-30T23:45:36.911Z,13.31
2017-09-30T23:48:05.950Z,13.22
2017-09-30T23:50:35.019Z,13.19
2017-09-30T23:53:04.063Z,13.29
2017-09-30T23:55:33.106Z,13.28
2017-09-30T23:58:02.150Z,13.23
